createdAt,value
2023-03-27T00:00:01.745Z,6.72
2023-03-27T00:02:35.214Z,6.64
2023-03-27T00:05:08.503Z,6.61
2023-03-27T00:07:42.793Z,6.53
2023-03-27T00:10:16.928Z,6.48
2023-03-27T00:12:49.630Z,6.42
2023-03-27T00:15:23.057Z,6.38
2023-03-27T00:17:56.245Z,6.33
2023-03-27T00:20:30.441Z,6.38
2023-03-27T00:23:03.389Z,6.36
2023-03-27T00:25:38.584Z,6.36
2023-03-27T00:28:14.396Z,6.38
2023-03-27T00:30:49.267Z,6.44
2023-03-27T00:33:20.035Z,6.46
2023-03-27T00:35:54.037Z,6.44
2023-03-27T00:38:26.677Z,6.45
2023-03-27T00:41:00.209Z,6.48
2023-03-27T00:43:35.479Z,6.47
2023-03-27T00:46:21.802Z,6.55
2023-03-27T00:48:56.827Z,6.60
2023-03-27T00:51:31.586Z,6.66
2023-03-27T00:54:06.557Z,6.72
2023-03-27T00:56:39.964Z,6.76
2023-03-27T00:59:17.536Z,6.80
2023-03-27T01:01:51.019Z,6.83
2023-03-27T01:04:23.697Z,6.86
2023-03-27T01:07:00.527Z,6.85
2023-03-27T01:09:34.653Z,6.84
2023-03-27T01:12:21.393Z,6.81
2023-03-27T01:15:07.372Z,6.85
2023-03-27T01:17:54.062Z,6.91
2023-03-27T01:20:54.087Z,6.93
2023-03-27T01:24:04.871Z,6.92
2023-03-27T01:27:11.080Z,6.94
2023-03-27T01:30:04.319Z,6.97
2023-03-27T01:33:06.329Z,7.00
2023-03-27T01:36:10.337Z,7.02
2023-03-27T01:39:25.832Z,7.03
2023-03-27T01:42:06.374Z,6.99
2023-03-27T01:44:49.096Z,7.00
2023-03-27T01:47:32.129Z,6.97
2023-03-27T01:50:12.913Z,6.97
2023-03-27T01:52:49.702Z,6.99
2023-03-27T01:55:28.084Z,7.00
2023-03-27T01:58:06.354Z,6.96
2023-03-27T02:00:52.204Z,6.97
2023-03-27T02:03:30.207Z,6.98
2023-03-27T02:06:09.124Z,6.94
2023-03-27T02:08:48.893Z,6.90
2023-03-27T02:11:26.723Z,6.89
2023-03-27T02:14:04.184Z,6.93
2023-03-27T02:16:43.401Z,6.94
2023-03-27T02:19:21.234Z,6.94
2023-03-27T02:21:54.588Z,6.92
2023-03-27T02:24:29.414Z,6.94
2023-03-27T02:27:13.255Z,6.96
2023-03-27T02:30:05.423Z,6.93
2023-03-27T02:32:50.095Z,6.87
2023-03-27T02:35:41.625Z,6.87
2023-03-27T02:38:21.134Z,6.90
2023-03-27T02:41:07.615Z,6.91
2023-03-27T02:44:02.736Z,6.87
2023-03-27T02:47:01.767Z,6.79
2023-03-27T02:49:39.627Z,6.75
2023-03-27T02:52:15.546Z,6.67
2023-03-27T02:54:52.860Z,6.65
2023-03-27T02:57:32.098Z,6.68
2023-03-27T03:00:28.413Z,6.73
2023-03-27T03:03:28.328Z,6.76
2023-03-27T03:06:11.510Z,6.74
2023-03-27T03:08:47.207Z,6.76
2023-03-27T03:11:19.960Z,6.78
2023-03-27T03:13:52.439Z,6.80
2023-03-27T03:16:24.913Z,6.81
2023-03-27T03:18:58.942Z,6.84
2023-03-27T03:21:32.464Z,6.80
2023-03-27T03:24:03.540Z,6.77
2023-03-27T03:26:36.533Z,6.62
2023-03-27T03:29:11.925Z,6.63
2023-03-27T03:31:46.156Z,6.62
2023-03-27T03:34:22.854Z,6.66
2023-03-27T03:36:55.798Z,6.68
2023-03-27T03:39:34.311Z,6.71
2023-03-27T03:42:07.325Z,6.73
2023-03-27T03:44:39.972Z,6.75
2023-03-27T03:47:23.675Z,6.77
2023-03-27T03:49:56.341Z,6.80
2023-03-27T03:52:29.278Z,6.83
2023-03-27T03:55:02.029Z,6.85
2023-03-27T03:57:34.835Z,6.87
2023-03-27T04:00:17.915Z,6.82
2023-03-27T04:02:55.131Z,6.83
2023-03-27T04:05:29.455Z,6.83
2023-03-27T04:08:07.481Z,6.84
2023-03-27T04:10:41.943Z,6.85
2023-03-27T04:13:22.565Z,6.84
2023-03-27T04:16:02.206Z,6.84
2023-03-27T04:18:41.836Z,6.85
2023-03-27T04:21:18.483Z,6.85
2023-03-27T04:23:51.745Z,6.85
2023-03-27T04:26:33.461Z,6.86
2023-03-27T04:29:30.645Z,6.87
2023-03-27T04:32:07.299Z,6.88
2023-03-27T04:34:46.835Z,6.89
2023-03-27T04:37:29.461Z,6.90
2023-03-27T04:40:21.301Z,6.90
2023-03-27T04:42:56.424Z,6.87
2023-03-27T04:45:29.138Z,6.86
2023-03-27T04:48:02.190Z,6.88
2023-03-27T04:50:38.110Z,6.86
2023-03-27T04:53:11.181Z,6.86
2023-03-27T04:55:52.513Z,6.81
2023-03-27T04:58:27.008Z,6.75
2023-03-27T05:01:00.643Z,6.74
2023-03-27T05:04:00.004Z,6.72
2023-03-27T05:06:42.143Z,6.73
2023-03-27T05:09:18.141Z,6.72
2023-03-27T05:11:51.568Z,6.69
2023-03-27T05:14:27.015Z,6.69
2023-03-27T05:17:01.256Z,6.66
2023-03-27T05:19:35.535Z,6.67
2023-03-27T05:22:08.197Z,6.68
2023-03-27T05:24:42.552Z,6.68
2023-03-27T05:27:15.635Z,6.68
2023-03-27T05:29:50.086Z,6.68
2023-03-27T05:32:23.083Z,6.70
2023-03-27T05:35:04.535Z,6.71
2023-03-27T05:37:42.633Z,6.73
2023-03-27T05:40:41.647Z,6.74
2023-03-27T05:43:15.204Z,6.75
2023-03-27T05:45:48.150Z,6.76
2023-03-27T05:48:21.724Z,6.77
2023-03-27T05:50:54.625Z,6.79
2023-03-27T05:53:29.180Z,6.80
2023-03-27T05:56:23.514Z,6.78
2023-03-27T05:59:02.725Z,6.77
2023-03-27T06:01:37.180Z,6.82
2023-03-27T06:04:11.440Z,6.80
2023-03-27T06:07:02.813Z,6.82
2023-03-27T06:09:37.243Z,6.87
2023-03-27T06:12:28.298Z,6.87
2023-03-27T06:15:10.191Z,6.90
2023-03-27T06:17:50.718Z,6.94
2023-03-27T06:20:25.363Z,6.88
2023-03-27T06:23:01.217Z,6.91
2023-03-27T06:25:38.341Z,6.95
2023-03-27T06:28:12.657Z,6.93
2023-03-27T06:30:51.759Z,6.94
2023-03-27T06:33:48.038Z,7.00
2023-03-27T06:36:44.254Z,7.00
2023-03-27T06:39:18.223Z,7.00
2023-03-27T06:41:56.692Z,6.97
2023-03-27T06:44:34.318Z,6.98
2023-03-27T06:47:21.828Z,6.93
2023-03-27T06:49:54.988Z,6.97
2023-03-27T06:52:28.628Z,6.99
2023-03-27T06:55:15.152Z,6.99
2023-03-27T06:57:58.597Z,6.95
2023-03-27T07:00:34.628Z,6.88
2023-03-27T07:03:40.417Z,6.91
2023-03-27T07:06:38.570Z,6.96
2023-03-27T07:09:15.264Z,6.99
2023-03-27T07:11:50.999Z,7.01
2023-03-27T07:14:26.448Z,7.01
2023-03-27T07:17:00.882Z,7.01
2023-03-27T07:19:38.951Z,6.97
2023-03-27T07:22:14.703Z,6.98
2023-03-27T07:24:47.453Z,6.96
2023-03-27T07:27:20.729Z,6.90
2023-03-27T07:29:52.289Z,6.88
2023-03-27T07:32:36.660Z,6.88
2023-03-27T07:35:13.196Z,6.84
2023-03-27T07:37:52.063Z,6.82
2023-03-27T07:40:44.603Z,6.80
2023-03-27T07:43:46.296Z,6.82
2023-03-27T07:46:19.113Z,6.82
2023-03-27T07:48:52.616Z,6.82
2023-03-27T07:51:28.648Z,6.83
2023-03-27T07:54:04.569Z,6.85
2023-03-27T07:56:41.482Z,6.86
2023-03-27T07:59:37.314Z,6.88
2023-03-27T08:02:17.588Z,6.92
2023-03-27T08:04:52.366Z,6.93
2023-03-27T08:07:25.976Z,6.95
2023-03-27T08:10:03.427Z,6.99
2023-03-27T08:12:40.614Z,6.98
2023-03-27T08:15:14.360Z,6.99
2023-03-27T08:17:45.649Z,6.98
2023-03-27T08:20:19.197Z,6.95
2023-03-27T08:23:07.707Z,6.94
2023-03-27T08:26:01.031Z,6.91
2023-03-27T08:28:38.524Z,6.87
2023-03-27T08:31:15.393Z,6.82
2023-03-27T08:33:50.043Z,6.84
2023-03-27T08:36:28.746Z,6.86
2023-03-27T08:39:03.414Z,6.86
2023-03-27T08:41:46.893Z,6.79
2023-03-27T08:44:27.172Z,6.76
2023-03-27T08:47:05.114Z,6.78
2023-03-27T08:49:48.360Z,6.79
2023-03-27T08:52:30.362Z,6.81
2023-03-27T08:55:13.498Z,6.79
2023-03-27T08:57:55.657Z,6.79
2023-03-27T09:00:55.897Z,6.78
2023-03-27T09:03:37.891Z,6.78
2023-03-27T09:06:49.729Z,6.65
2023-03-27T09:10:08.106Z,6.58
2023-03-27T09:13:29.977Z,6.66
2023-03-27T09:16:16.332Z,6.61
2023-03-27T09:19:00.541Z,6.59
2023-03-27T09:21:45.524Z,6.57
2023-03-27T09:24:29.897Z,6.47
2023-03-27T09:27:32.936Z,6.36
2023-03-27T09:30:32.425Z,6.28
2023-03-27T09:33:25.891Z,6.23
2023-03-27T09:36:01.488Z,6.16
2023-03-27T09:38:39.035Z,6.13
2023-03-27T09:41:19.704Z,6.08
2023-03-27T09:44:01.152Z,6.02
2023-03-27T09:46:35.301Z,5.95
2023-03-27T09:49:14.174Z,5.89
2023-03-27T09:51:52.200Z,5.80
2023-03-27T09:54:57.776Z,5.80
2023-03-27T09:57:39.071Z,5.79
2023-03-27T10:00:31.614Z,5.70
2023-03-27T10:03:08.393Z,5.69
2023-03-27T10:05:44.716Z,5.65
2023-03-27T10:08:39.448Z,5.69
2023-03-27T10:11:31.231Z,5.60
2023-03-27T10:14:19.773Z,5.68
2023-03-27T10:16:53.221Z,5.62
2023-03-27T10:19:29.884Z,5.53
2023-03-27T10:22:14.269Z,5.52
2023-03-27T10:24:50.156Z,5.58
2023-03-27T10:27:41.122Z,5.60
2023-03-27T10:30:34.921Z,5.53
2023-03-27T10:33:36.971Z,5.47
2023-03-27T10:36:23.779Z,5.45
2023-03-27T10:38:59.561Z,5.31
2023-03-27T10:41:52.738Z,5.31
2023-03-27T10:44:29.019Z,5.30
2023-03-27T10:47:03.626Z,5.31
2023-03-27T10:49:45.578Z,5.19
2023-03-27T10:52:35.925Z,5.07
2023-03-27T10:55:34.966Z,5.05
2023-03-27T10:58:22.494Z,4.94
2023-03-27T11:01:01.501Z,4.82
2023-03-27T11:03:41.653Z,4.74
2023-03-27T11:06:19.322Z,4.75
2023-03-27T11:09:06.092Z,4.73
2023-03-27T11:11:51.034Z,4.72
2023-03-27T11:14:29.950Z,4.62
2023-03-27T11:17:09.143Z,4.51
2023-03-27T11:20:08.882Z,4.39
2023-03-27T11:23:06.244Z,4.39
2023-03-27T11:25:52.182Z,4.18
2023-03-27T11:28:38.091Z,4.15
2023-03-27T11:31:21.782Z,4.09
2023-03-27T11:33:57.962Z,4.01
2023-03-27T11:36:42.115Z,4.01
2023-03-27T11:39:29.313Z,3.88
2023-03-27T11:42:07.235Z,3.82
2023-03-27T11:44:40.667Z,3.71
2023-03-27T11:47:37.636Z,3.63
2023-03-27T11:50:25.071Z,3.61
2023-03-27T11:53:16.786Z,3.60
2023-03-27T11:56:22.275Z,3.54
2023-03-27T11:59:24.357Z,3.52
2023-03-27T12:02:15.180Z,3.54
2023-03-27T12:04:56.449Z,3.52
2023-03-27T12:07:53.868Z,3.50
2023-03-27T12:10:33.478Z,3.41
2023-03-27T12:14:01.135Z,3.41
2023-03-27T12:17:12.206Z,3.42
2023-03-27T12:20:33.801Z,3.37
2023-03-27T12:23:28.605Z,3.25
2023-03-27T12:26:44.028Z,3.16
2023-03-27T12:29:53.315Z,3.09
2023-03-27T12:32:46.345Z,3.02
2023-03-27T12:35:21.839Z,3.05
2023-03-27T12:38:02.515Z,3.08
2023-03-27T12:40:44.028Z,2.97
2023-03-27T12:43:34.204Z,3.03
2023-03-27T12:46:34.639Z,2.92
2023-03-27T12:49:48.084Z,2.99
2023-03-27T12:52:30.683Z,2.95
2023-03-27T12:55:39.490Z,2.96
2023-03-27T12:58:37.373Z,2.94
2023-03-27T13:02:01.455Z,2.95
2023-03-27T13:05:01.441Z,2.90
2023-03-27T13:07:40.668Z,2.92
2023-03-27T13:10:35.458Z,2.90
2023-03-27T13:13:39.762Z,2.95
2023-03-27T13:16:29.139Z,2.89
2023-03-27T13:19:21.282Z,2.92
2023-03-27T13:22:14.086Z,2.96
2023-03-27T13:25:12.403Z,2.87
2023-03-27T13:28:04.889Z,2.90
2023-03-27T13:30:47.699Z,2.91
2023-03-27T13:33:47.078Z,2.85
2023-03-27T13:36:33.922Z,2.89
2023-03-27T13:39:21.440Z,2.84
2023-03-27T13:42:15.627Z,2.81
2023-03-27T13:45:04.727Z,2.85
2023-03-27T13:48:12.052Z,2.87
2023-03-27T13:51:19.963Z,2.81
2023-03-27T13:54:08.163Z,2.82
2023-03-27T13:57:02.579Z,2.79
2023-03-27T14:00:08.682Z,2.83
2023-03-27T14:03:19.601Z,2.86
2023-03-27T14:06:40.897Z,2.84
2023-03-27T14:09:25.860Z,2.82
2023-03-27T14:12:26.228Z,2.88
2023-03-27T14:15:34.666Z,2.85
2023-03-27T14:19:03.512Z,2.79
2023-03-27T14:21:56.242Z,2.82
2023-03-27T14:24:38.681Z,2.82
2023-03-27T14:27:34.097Z,2.85
2023-03-27T14:30:20.955Z,2.86
2023-03-27T14:33:29.166Z,2.81
2023-03-27T14:36:06.788Z,2.79
2023-03-27T14:38:42.065Z,2.81
2023-03-27T14:41:26.018Z,2.77
2023-03-27T14:44:04.510Z,2.74
2023-03-27T14:46:49.415Z,2.77
2023-03-27T14:49:27.267Z,2.74
2023-03-27T14:52:08.171Z,2.74
2023-03-27T14:55:18.504Z,2.71
2023-03-27T14:57:58.457Z,2.75
2023-03-27T15:00:36.879Z,2.73
2023-03-27T15:03:16.569Z,2.68
2023-03-27T15:06:06.909Z,2.70
2023-03-27T15:08:50.477Z,2.70
2023-03-27T15:11:49.205Z,2.67
2023-03-27T15:14:33.376Z,2.64
2023-03-27T15:17:10.272Z,2.65
2023-03-27T15:19:48.793Z,2.72
2023-03-27T15:22:31.299Z,2.69
2023-03-27T15:25:07.487Z,2.67
2023-03-27T15:27:43.616Z,2.62
2023-03-27T15:30:27.736Z,2.65
2023-03-27T15:33:02.430Z,2.66
2023-03-27T15:35:37.514Z,2.64
2023-03-27T15:38:14.516Z,2.66
2023-03-27T15:40:48.194Z,2.66
2023-03-27T15:43:23.895Z,2.68
2023-03-27T15:46:15.359Z,2.66
2023-03-27T15:48:55.719Z,2.63
2023-03-27T15:51:34.960Z,2.63
2023-03-27T15:54:27.535Z,2.62
2023-03-27T15:57:10.041Z,2.54
2023-03-27T15:59:52.855Z,2.56
2023-03-27T16:02:28.870Z,2.59
2023-03-27T16:05:02.974Z,2.60
2023-03-27T16:07:47.764Z,2.60
2023-03-27T16:10:34.278Z,2.65
2023-03-27T16:13:09.505Z,2.61
2023-03-27T16:15:46.882Z,2.62
2023-03-27T16:18:27.227Z,2.65
2023-03-27T16:21:09.027Z,2.63
2023-03-27T16:23:42.452Z,2.59
2023-03-27T16:26:18.063Z,2.57
2023-03-27T16:28:51.361Z,2.55
2023-03-27T16:31:24.490Z,2.53
2023-03-27T16:33:58.725Z,2.51
2023-03-27T16:36:34.047Z,2.47
2023-03-27T16:39:08.067Z,2.47
2023-03-27T16:41:40.756Z,2.46
2023-03-27T16:44:13.736Z,2.42
2023-03-27T16:46:46.969Z,2.46
2023-03-27T16:49:20.352Z,2.45
2023-03-27T16:51:53.399Z,2.45
2023-03-27T16:54:26.900Z,2.42
2023-03-27T16:56:59.671Z,2.41
2023-03-27T16:59:32.883Z,2.36
2023-03-27T17:02:05.817Z,2.40
2023-03-27T17:04:39.045Z,2.35
2023-03-27T17:07:12.235Z,2.31
2023-03-27T17:09:45.035Z,2.32
2023-03-27T17:12:17.592Z,2.27
2023-03-27T17:14:50.568Z,2.27
2023-03-27T17:17:23.278Z,2.24
2023-03-27T17:19:57.822Z,2.24
2023-03-27T17:22:31.755Z,2.29
2023-03-27T17:25:06.276Z,2.27
2023-03-27T17:27:39.215Z,2.29
2023-03-27T17:30:16.070Z,2.20
2023-03-27T17:33:00.000Z,2.23
2023-03-27T17:35:46.796Z,2.21
2023-03-27T17:38:24.105Z,2.21
2023-03-27T17:41:01.198Z,2.20
2023-03-27T17:43:35.765Z,2.19
2023-03-27T17:46:09.966Z,2.19
2023-03-27T17:48:44.591Z,2.16
2023-03-27T17:51:17.527Z,2.14
2023-03-27T17:53:51.228Z,2.11
2023-03-27T17:56:28.413Z,2.09
2023-03-27T17:59:11.755Z,2.12
2023-03-27T18:01:50.820Z,2.14
2023-03-27T18:04:25.925Z,2.14
2023-03-27T18:07:03.400Z,2.12
2023-03-27T18:09:39.217Z,2.03
2023-03-27T18:12:12.342Z,2.01
2023-03-27T18:14:48.528Z,1.92
2023-03-27T18:17:22.712Z,1.90
2023-03-27T18:19:56.776Z,1.88
2023-03-27T18:22:29.767Z,1.86
2023-03-27T18:25:03.874Z,1.86
2023-03-27T18:27:40.312Z,1.85
2023-03-27T18:30:18.503Z,1.82
2023-03-27T18:32:51.825Z,1.76
2023-03-27T18:35:26.759Z,1.75
2023-03-27T18:38:04.134Z,1.78
2023-03-27T18:40:37.978Z,1.75
2023-03-27T18:43:13.842Z,1.73
2023-03-27T18:45:48.098Z,1.72
2023-03-27T18:48:20.733Z,1.72
2023-03-27T18:50:58.953Z,1.66
2023-03-27T18:53:32.246Z,1.65
2023-03-27T18:56:05.114Z,1.66
2023-03-27T18:58:38.115Z,1.61
2023-03-27T19:01:12.826Z,1.56
2023-03-27T19:03:46.220Z,1.57
2023-03-27T19:06:20.006Z,1.53
2023-03-27T19:08:51.582Z,1.52
2023-03-27T19:11:24.405Z,1.47
2023-03-27T19:14:32.825Z,1.44
2023-03-27T19:17:24.810Z,1.45
2023-03-27T19:20:18.474Z,1.40
2023-03-27T19:23:12.134Z,1.35
2023-03-27T19:25:53.153Z,1.37
2023-03-27T19:28:26.236Z,1.36
2023-03-27T19:31:05.531Z,1.30
2023-03-27T19:33:38.704Z,1.31
2023-03-27T19:36:13.261Z,1.27
2023-03-27T19:38:45.908Z,1.18
2023-03-27T19:41:20.494Z,1.20
2023-03-27T19:43:53.485Z,1.19
2023-03-27T19:46:27.014Z,1.18
2023-03-27T19:49:01.263Z,1.17
2023-03-27T19:51:44.312Z,1.14
2023-03-27T19:54:18.648Z,1.11
2023-03-27T19:56:51.473Z,1.09
2023-03-27T19:59:30.740Z,1.04
2023-03-27T20:02:04.587Z,1.06
2023-03-27T20:04:37.254Z,1.08
2023-03-27T20:07:10.448Z,1.04
2023-03-27T20:09:43.259Z,1.01
2023-03-27T20:12:16.601Z,1.03
2023-03-27T20:15:02.941Z,1.01
2023-03-27T20:17:43.395Z,0.95
2023-03-27T20:20:16.829Z,0.95
2023-03-27T20:22:57.755Z,0.94
2023-03-27T20:25:33.921Z,0.95
2023-03-27T20:28:08.386Z,0.94
2023-03-27T20:30:42.665Z,0.93
2023-03-27T20:33:19.434Z,0.88
2023-03-27T20:35:53.002Z,0.84
2023-03-27T20:38:29.265Z,0.80
2023-03-27T20:41:04.032Z,0.76
2023-03-27T20:43:39.166Z,0.73
2023-03-27T20:46:14.495Z,0.73
2023-03-27T20:48:53.819Z,0.72
2023-03-27T20:51:31.547Z,0.67
2023-03-27T20:54:10.376Z,0.65
2023-03-27T20:56:44.565Z,0.61
2023-03-27T20:59:17.222Z,0.56
2023-03-27T21:01:50.621Z,0.51
2023-03-27T21:04:26.206Z,0.50
2023-03-27T21:06:59.314Z,0.50
2023-03-27T21:09:32.514Z,0.46
2023-03-27T21:12:05.358Z,0.47
2023-03-27T21:14:38.158Z,0.46
2023-03-27T21:17:11.204Z,0.41
2023-03-27T21:19:44.198Z,0.42
2023-03-27T21:22:16.827Z,0.42
2023-03-27T21:24:49.997Z,0.38
2023-03-27T21:27:22.678Z,0.39
2023-03-27T21:29:55.539Z,0.35
2023-03-27T21:32:29.355Z,0.31
2023-03-27T21:35:02.385Z,0.30
2023-03-27T21:37:35.026Z,0.26
2023-03-27T21:40:09.221Z,0.28
2023-03-27T21:42:41.847Z,0.24
2023-03-27T21:45:14.716Z,0.15
2023-03-27T21:47:48.070Z,0.14
2023-03-27T21:50:21.448Z,0.12
2023-03-27T21:52:54.107Z,0.13
2023-03-27T21:55:26.737Z,0.14
2023-03-27T21:57:59.222Z,0.13
2023-03-27T22:00:32.118Z,0.15
2023-03-27T22:03:04.811Z,0.08
2023-03-27T22:05:39.635Z,0.08
2023-03-27T22:08:12.158Z,0.06
2023-03-27T22:10:45.128Z,0.01
2023-03-27T22:13:17.770Z,-0.06
2023-03-27T22:15:50.324Z,-0.03
2023-03-27T22:18:23.257Z,-0.02
2023-03-27T22:20:59.047Z,-0.02
2023-03-27T22:23:33.911Z,-0.08
2023-03-27T22:26:07.537Z,-0.13
2023-03-27T22:28:42.457Z,-0.15
2023-03-27T22:31:16.979Z,-0.18
2023-03-27T22:33:49.632Z,-0.20
2023-03-27T22:36:22.320Z,-0.19
2023-03-27T22:38:55.505Z,-0.25
2023-03-27T22:41:29.085Z,-0.22
2023-03-27T22:44:03.868Z,-0.21
2023-03-27T22:46:40.351Z,-0.26
2023-03-27T22:49:14.731Z,-0.27
2023-03-27T22:51:47.411Z,-0.27
2023-03-27T22:54:20.145Z,-0.30
2023-03-27T22:56:55.543Z,-0.34
2023-03-27T22:59:28.765Z,-0.37
2023-03-27T23:02:03.093Z,-0.38
2023-03-27T23:04:36.583Z,-0.38
2023-03-27T23:07:09.110Z,-0.39
2023-03-27T23:09:42.588Z,-0.41
2023-03-27T23:12:15.065Z,-0.44
2023-03-27T23:14:49.537Z,-0.46
2023-03-27T23:17:22.198Z,-0.47
2023-03-27T23:19:55.316Z,-0.46
2023-03-27T23:22:27.866Z,-0.45
2023-03-27T23:25:00.571Z,-0.49
2023-03-27T23:27:33.526Z,-0.52
2023-03-27T23:30:07.065Z,-0.52
2023-03-27T23:32:39.622Z,-0.54
2023-03-27T23:35:15.057Z,-0.54
2023-03-27T23:37:49.266Z,-0.53
2023-03-27T23:40:22.015Z,-0.57
2023-03-27T23:42:54.625Z,-0.55
2023-03-27T23:45:27.094Z,-0.60
2023-03-27T23:47:59.563Z,-0.58
2023-03-27T23:50:32.147Z,-0.61
2023-03-27T23:53:04.903Z,-0.64
2023-03-27T23:55:39.065Z,-0.69
2023-03-27T23:58:11.823Z,-0.68
